sensor_id;sensor_type;location;lat;lon;timestamp;pressure;altitude;pressure_sealevel;temperature;humidity
4167;BME280;2097;51.104;7.150;2023-02-28T00:01:11;99989.63;;;-2.78;83.30
4167;BME280;2097;51.104;7.150;2023-02-28T00:03:38;100098.94;;;-2.13;82.91
4167;BME280;2097;51.104;7.150;2023-02-28T00:06:07;100043.19;;;-2.63;83.48
4167;BME280;2097;51.104;7.150;2023-02-28T00:08:35;99822.88;;;-4.00;83.56
4167;BME280;2097;51.104;7.150;2023-02-28T00:11:02;100106.47;;;-2.20;83.78
4167;BME280;2097;51.104;7.150;2023-02-28T00:13:30;99980.03;;;-2.98;83.78
4167;BME280;2097;51.104;7.150;2023-02-28T00:16:00;99681.69;;;-4.65;83.56
4167;BME280;2097;51.104;7.150;2023-02-28T00:18:28;99778.81;;;-4.11;83.66
4167;BME280;2097;51.104;7.150;2023-02-28T00:20:55;100111.56;;;-2.20;83.46
4167;BME280;2097;51.104;7.150;2023-02-28T00:23:23;99748.03;;;-4.32;84.09
4167;BME280;2097;51.104;7.150;2023-02-28T00:25:51;100094.59;;;-2.21;83.90
4167;BME280;2097;51.104;7.150;2023-02-28T00:28:19;100101.34;;;-2.23;84.46
4167;BME280;2097;51.104;7.150;2023-02-28T00:30:47;99856.44;;;-3.61;84.33
4167;BME280;2097;51.104;7.150;2023-02-28T00:33:14;99937.41;;;-3.20;84.01
4167;BME280;2097;51.104;7.150;2023-02-28T00:35:40;100087.66;;;-2.32;84.25
4167;BME280;2097;51.104;7.150;2023-02-28T00:38:07;100098.66;;;-2.33;84.16
4167;BME280;2097;51.104;7.150;2023-02-28T00:40:36;100062.00;;;-2.50;84.82
4167;BME280;2097;51.104;7.150;2023-02-28T00:43:03;100095.41;;;-2.25;84.37
4167;BME280;2097;51.104;7.150;2023-02-28T00:45:30;99944.34;;;-3.09;83.93
4167;BME280;2097;51.104;7.150;2023-02-28T00:47:57;100114.16;;;-2.14;83.97
4167;BME280;2097;51.104;7.150;2023-02-28T00:50:24;100001.59;;;-2.71;84.20
4167;BME280;2097;51.104;7.150;2023-02-28T00:52:51;100094.03;;;-1.99;84.20
4167;BME280;2097;51.104;7.150;2023-02-28T00:55:18;99776.53;;;-3.93;83.30
4167;BME280;2097;51.104;7.150;2023-02-28T00:57:46;99949.75;;;-2.85;83.86
4167;BME280;2097;51.104;7.150;2023-02-28T01:00:14;99973.63;;;-2.74;83.68
4167;BME280;2097;51.104;7.150;2023-02-28T01:02:50;100047.03;;;-2.31;83.93
4167;BME280;2097;51.104;7.150;2023-02-28T01:05:28;99882.09;;;-3.43;84.16
4167;BME280;2097;51.104;7.150;2023-02-28T01:08:06;100089.66;;;-2.09;84.47
4167;BME280;2097;51.104;7.150;2023-02-28T01:10:42;99711.41;;;-4.53;84.08
4167;BME280;2097;51.104;7.150;2023-02-28T01:13:13;100096.44;;;-2.10;84.06
4167;BME280;2097;51.104;7.150;2023-02-28T01:15:55;100100.63;;;-2.13;84.60
4167;BME280;2097;51.104;7.150;2023-02-28T01:18:24;98935.59;;;-8.99;83.74
4167;BME280;2097;51.104;7.150;2023-02-28T01:20:51;99395.84;;;-6.26;84.28
4167;BME280;2097;51.104;7.150;2023-02-28T01:23:26;100117.47;;;-2.21;85.16
4167;BME280;2097;51.104;7.150;2023-02-28T01:26:05;99372.38;;;-6.67;84.49
4167;BME280;2097;51.104;7.150;2023-02-28T01:28:42;100103.84;;;-2.25;84.90
4167;BME280;2097;51.104;7.150;2023-02-28T01:31:49;100066.34;;;-2.43;85.53
4167;BME280;2097;51.104;7.150;2023-02-28T01:34:39;100007.41;;;-2.79;85.00
4167;BME280;2097;51.104;7.150;2023-02-28T01:37:18;100099.56;;;-2.30;84.79
4167;BME280;2097;51.104;7.150;2023-02-28T01:39:59;99724.22;;;-4.45;84.92
4167;BME280;2097;51.104;7.150;2023-02-28T01:42:34;99903.16;;;-3.47;85.05
4167;BME280;2097;51.104;7.150;2023-02-28T01:45:14;99787.38;;;-4.03;85.27
4167;BME280;2097;51.104;7.150;2023-02-28T01:47:59;100004.97;;;-2.73;85.17
4167;BME280;2097;51.104;7.150;2023-02-28T01:50:35;100078.31;;;-2.33;84.94
4167;BME280;2097;51.104;7.150;2023-02-28T01:53:07;100074.06;;;-2.36;85.31
4167;BME280;2097;51.104;7.150;2023-02-28T01:55:37;100073.13;;;-2.42;85.66
4167;BME280;2097;51.104;7.150;2023-02-28T01:58:06;100014.84;;;-2.91;85.47
4167;BME280;2097;51.104;7.150;2023-02-28T02:00:36;100064.50;;;-2.53;85.93
4167;BME280;2097;51.104;7.150;2023-02-28T02:03:06;99551.00;;;-5.63;85.84
4167;BME280;2097;51.104;7.150;2023-02-28T02:05:36;100007.06;;;-3.02;86.09
4167;BME280;2097;51.104;7.150;2023-02-28T02:08:05;100066.75;;;-2.71;86.27
4167;BME280;2097;51.104;7.150;2023-02-28T02:10:35;100060.78;;;-2.76;86.69
4167;BME280;2097;51.104;7.150;2023-02-28T02:13:14;100068.44;;;-2.72;87.08
4167;BME280;2097;51.104;7.150;2023-02-28T02:15:53;99967.00;;;-3.21;86.19
4167;BME280;2097;51.104;7.150;2023-02-28T02:18:27;100028.69;;;-2.68;86.42
4167;BME280;2097;51.104;7.150;2023-02-28T02:27:37;100047.44;;;-1.98;85.67
4167;BME280;2097;51.104;7.150;2023-02-28T02:33:58;100054.31;;;-1.90;85.62
4167;BME280;2097;51.104;7.150;2023-02-28T02:36:33;99845.28;;;-3.16;84.99
4167;BME280;2097;51.104;7.150;2023-02-28T02:39:06;100039.69;;;-2.07;85.25
4167;BME280;2097;51.104;7.150;2023-02-28T02:41:41;99895.44;;;-2.97;85.65
4167;BME280;2097;51.104;7.150;2023-02-28T02:44:17;100049.66;;;-2.24;86.06
4167;BME280;2097;51.104;7.150;2023-02-28T02:46:47;100046.16;;;-2.33;86.52
4167;BME280;2097;51.104;7.150;2023-02-28T02:49:19;100047.69;;;-2.44;86.82
4167;BME280;2097;51.104;7.150;2023-02-28T02:51:48;100037.25;;;-2.65;86.86
4167;BME280;2097;51.104;7.150;2023-02-28T02:54:19;99648.22;;;-4.99;86.85
4167;BME280;2097;51.104;7.150;2023-02-28T02:56:48;100049.84;;;-2.71;87.58
4167;BME280;2097;51.104;7.150;2023-02-28T02:59:18;100045.50;;;-2.78;87.44
4167;BME280;2097;51.104;7.150;2023-02-28T03:01:49;100041.16;;;-2.85;87.54
4167;BME280;2097;51.104;7.150;2023-02-28T03:04:20;99700.66;;;-4.91;87.53
4167;BME280;2097;51.104;7.150;2023-02-28T03:06:49;99943.59;;;-3.56;87.40
4167;BME280;2097;51.104;7.150;2023-02-28T03:09:20;99920.56;;;-3.70;87.54
4167;BME280;2097;51.104;7.150;2023-02-28T03:11:47;99637.41;;;-5.38;87.58
4167;BME280;2097;51.104;7.150;2023-02-28T03:14:33;100046.06;;;-2.97;87.52
4167;BME280;2097;51.104;7.150;2023-02-28T03:17:15;99856.56;;;-4.07;87.48
4167;BME280;2097;51.104;7.150;2023-02-28T03:19:52;100029.03;;;-3.04;86.98
4167;BME280;2097;51.104;7.150;2023-02-28T03:22:37;100018.81;;;-3.07;87.11
4167;BME280;2097;51.104;7.150;2023-02-28T03:25:14;99969.31;;;-3.36;87.48
4167;BME280;2097;51.104;7.150;2023-02-28T03:27:52;99929.25;;;-3.56;87.07
4167;BME280;2097;51.104;7.150;2023-02-28T03:30:26;100032.59;;;-2.93;87.02
4167;BME280;2097;51.104;7.150;2023-02-28T03:32:58;100030.91;;;-2.92;87.04
4167;BME280;2097;51.104;7.150;2023-02-28T03:35:32;100028.34;;;-2.92;86.91
4167;BME280;2097;51.104;7.150;2023-02-28T03:38:04;100036.03;;;-2.88;86.88
4167;BME280;2097;51.104;7.150;2023-02-28T03:40:33;100036.03;;;-2.88;86.95
4167;BME280;2097;51.104;7.150;2023-02-28T03:43:06;100041.06;;;-2.91;87.15
4167;BME280;2097;51.104;7.150;2023-02-28T03:45:36;100041.06;;;-2.91;86.95
4167;BME280;2097;51.104;7.150;2023-02-28T03:48:08;100040.22;;;-2.91;87.17
4167;BME280;2097;51.104;7.150;2023-02-28T03:50:41;100040.22;;;-2.91;87.20
4167;BME280;2097;51.104;7.150;2023-02-28T03:53:11;99402.75;;;-6.62;86.67
4167;BME280;2097;51.104;7.150;2023-02-28T03:55:42;100029.88;;;-3.03;87.00
4167;BME280;2097;51.104;7.150;2023-02-28T03:58:15;100041.94;;;-2.90;87.23
4167;BME280;2097;51.104;7.150;2023-02-28T04:00:52;100036.94;;;-2.84;86.76
4167;BME280;2097;51.104;7.150;2023-02-28T04:03:22;99170.78;;;-7.93;86.31
4167;BME280;2097;51.104;7.150;2023-02-28T04:05:52;99984.69;;;-3.25;86.55
4167;BME280;2097;51.104;7.150;2023-02-28T04:08:21;100009.31;;;-3.20;86.42
4167;BME280;2097;51.104;7.150;2023-02-28T04:10:53;99955.81;;;-3.35;86.83
4167;BME280;2097;51.104;7.150;2023-02-28T04:13:22;100049.56;;;-2.89;86.93
4167;BME280;2097;51.104;7.150;2023-02-28T04:15:49;99606.03;;;-5.49;86.89
4167;BME280;2097;51.104;7.150;2023-02-28T04:18:16;99883.13;;;-3.84;87.16
4167;BME280;2097;51.104;7.150;2023-02-28T04:20:43;100053.13;;;-2.79;86.99
4167;BME280;2097;51.104;7.150;2023-02-28T04:23:11;100023.22;;;-2.95;86.86
4167;BME280;2097;51.104;7.150;2023-02-28T04:25:38;100047.19;;;-2.78;86.39
4167;BME280;2097;51.104;7.150;2023-02-28T04:28:05;99677.81;;;-4.95;86.30
4167;BME280;2097;51.104;7.150;2023-02-28T04:30:32;99577.94;;;-5.64;86.21
4167;BME280;2097;51.104;7.150;2023-02-28T04:32:59;99993.81;;;-3.36;86.91
4167;BME280;2097;51.104;7.150;2023-02-28T04:35:26;100052.13;;;-2.87;86.42
4167;BME280;2097;51.104;7.150;2023-02-28T04:37:53;100064.00;;;-2.85;86.79
4167;BME280;2097;51.104;7.150;2023-02-28T04:40:21;100023.03;;;-3.09;86.76
4167;BME280;2097;51.104;7.150;2023-02-28T04:42:48;100058.00;;;-2.90;86.84
4167;BME280;2097;51.104;7.150;2023-02-28T04:45:15;100060.53;;;-2.91;86.66
4167;BME280;2097;51.104;7.150;2023-02-28T04:47:42;99962.22;;;-3.54;86.92
4167;BME280;2097;51.104;7.150;2023-02-28T04:50:10;100067.22;;;-2.96;87.10
4167;BME280;2097;51.104;7.150;2023-02-28T04:52:36;99925.44;;;-3.80;86.78
4167;BME280;2097;51.104;7.150;2023-02-28T04:55:04;100011.44;;;-3.43;87.15
4167;BME280;2097;51.104;7.150;2023-02-28T04:57:33;100063.63;;;-3.09;87.50
4167;BME280;2097;51.104;7.150;2023-02-28T05:00:00;100009.69;;;-3.47;87.38
4167;BME280;2097;51.104;7.150;2023-02-28T05:02:35;99725.41;;;-5.19;87.23
4167;BME280;2097;51.104;7.150;2023-02-28T05:05:01;99773.16;;;-4.91;87.22
4167;BME280;2097;51.104;7.150;2023-02-28T05:07:28;99499.78;;;-6.85;87.54
4167;BME280;2097;51.104;7.150;2023-02-28T05:09:55;99568.63;;;-6.12;87.20
4167;BME280;2097;51.104;7.150;2023-02-28T05:12:22;100082.88;;;-3.20;87.17
4167;BME280;2097;51.104;7.150;2023-02-28T05:14:50;100074.41;;;-3.22;87.81
4167;BME280;2097;51.104;7.150;2023-02-28T05:17:20;99999.97;;;-3.71;87.57
4167;BME280;2097;51.104;7.150;2023-02-28T05:19:47;100013.72;;;-3.58;87.31
4167;BME280;2097;51.104;7.150;2023-02-28T05:22:14;100114.94;;;-3.26;87.64
4167;BME280;2097;51.104;7.150;2023-02-28T05:24:42;100081.06;;;-3.28;87.60
4167;BME280;2097;51.104;7.150;2023-02-28T05:27:10;100081.00;;;-3.31;87.89
4167;BME280;2097;51.104;7.150;2023-02-28T05:29:37;100092.91;;;-3.29;88.10
4167;BME280;2097;51.104;7.150;2023-02-28T05:32:12;100076.75;;;-3.32;87.73
4167;BME280;2097;51.104;7.150;2023-02-28T05:34:39;99970.84;;;-3.94;87.95
4167;BME280;2097;51.104;7.150;2023-02-28T05:37:07;100081.06;;;-3.30;87.65
4167;BME280;2097;51.104;7.150;2023-02-28T05:39:40;100083.59;;;-3.30;87.45
4167;BME280;2097;51.104;7.150;2023-02-28T05:42:06;99892.22;;;-4.43;87.46
4167;BME280;2097;51.104;7.150;2023-02-28T05:44:35;99888.84;;;-4.43;87.06
4167;BME280;2097;51.104;7.150;2023-02-28T05:47:02;100096.22;;;-3.33;87.60
4167;BME280;2097;51.104;7.150;2023-02-28T05:49:30;100085.19;;;-3.35;87.37
4167;BME280;2097;51.104;7.150;2023-02-28T05:51:57;100021.13;;;-3.70;87.88
4167;BME280;2097;51.104;7.150;2023-02-28T05:54:24;99760.69;;;-5.27;87.20
4167;BME280;2097;51.104;7.150;2023-02-28T05:56:50;99688.16;;;-5.70;87.44
4167;BME280;2097;51.104;7.150;2023-02-28T05:59:17;100112.97;;;-3.40;87.87
4167;BME280;2097;51.104;7.150;2023-02-28T06:01:45;99578.28;;;-6.33;87.22
4167;BME280;2097;51.104;7.150;2023-02-28T06:04:21;99153.75;;;-8.83;86.81
4167;BME280;2097;51.104;7.150;2023-02-28T06:07:13;99977.81;;;-4.25;87.79
4167;BME280;2097;51.104;7.150;2023-02-28T06:09:50;99207.63;;;-8.72;86.73
4167;BME280;2097;51.104;7.150;2023-02-28T06:12:17;100087.59;;;-3.40;87.48
4167;BME280;2097;51.104;7.150;2023-02-28T06:14:43;99659.22;;;-5.87;87.09
4167;BME280;2097;51.104;7.150;2023-02-28T06:17:10;99564.97;;;-6.66;87.11
4167;BME280;2097;51.104;7.150;2023-02-28T06:19:37;99711.56;;;-5.80;87.01
4167;BME280;2097;51.104;7.150;2023-02-28T06:22:08;100090.25;;;-3.35;87.39
4167;BME280;2097;51.104;7.150;2023-02-28T06:24:34;100016.56;;;-3.88;87.15
4167;BME280;2097;51.104;7.150;2023-02-28T06:27:01;99974.91;;;-4.00;87.01
4167;BME280;2097;51.104;7.150;2023-02-28T06:29:31;100089.38;;;-3.37;87.18
4167;BME280;2097;51.104;7.150;2023-02-28T06:31:57;99909.22;;;-4.37;87.58
4167;BME280;2097;51.104;7.150;2023-02-28T06:34:24;100101.38;;;-3.27;86.69
4167;BME280;2097;51.104;7.150;2023-02-28T06:36:51;99769.69;;;-5.39;86.55
4167;BME280;2097;51.104;7.150;2023-02-28T06:39:20;100034.75;;;-3.65;86.62
4167;BME280;2097;51.104;7.150;2023-02-28T06:41:48;100116.66;;;-3.24;86.81
4167;BME280;2097;51.104;7.150;2023-02-28T06:44:17;100044.91;;;-3.62;86.87
4167;BME280;2097;51.104;7.150;2023-02-28T06:46:45;100118.47;;;-3.18;86.90
4167;BME280;2097;51.104;7.150;2023-02-28T06:49:12;100022.78;;;-3.72;86.79
4167;BME280;2097;51.104;7.150;2023-02-28T06:51:41;99501.41;;;-6.87;86.23
4167;BME280;2097;51.104;7.150;2023-02-28T06:54:11;100121.25;;;-3.03;86.44
4167;BME280;2097;51.104;7.150;2023-02-28T06:59:22;99822.44;;;-4.73;86.00
4167;BME280;2097;51.104;7.150;2023-02-28T07:02:02;99227.28;;;-8.21;85.37
4167;BME280;2097;51.104;7.150;2023-02-28T07:04:32;100129.47;;;-2.69;85.15
4167;BME280;2097;51.104;7.150;2023-02-28T07:07:01;100132.09;;;-2.61;85.54
4167;BME280;2097;51.104;7.150;2023-02-28T07:09:29;100143.22;;;-2.55;85.05
4167;BME280;2097;51.104;7.150;2023-02-28T07:11:57;100128.94;;;-2.47;85.17
4167;BME280;2097;51.104;7.150;2023-02-28T07:14:24;100096.50;;;-2.64;84.96
4167;BME280;2097;51.104;7.150;2023-02-28T07:16:51;99969.38;;;-3.33;84.67
4167;BME280;2097;51.104;7.150;2023-02-28T07:19:18;100142.81;;;-2.27;84.84
4167;BME280;2097;51.104;7.150;2023-02-28T07:21:45;100141.19;;;-2.22;84.29
4167;BME280;2097;51.104;7.150;2023-02-28T07:24:12;99831.41;;;-3.97;83.88
4167;BME280;2097;51.104;7.150;2023-02-28T07:26:41;100144.75;;;-2.10;84.19
4167;BME280;2097;51.104;7.150;2023-02-28T07:29:09;100150.75;;;-2.03;84.48
4167;BME280;2097;51.104;7.150;2023-02-28T07:31:40;99908.44;;;-3.36;83.64
4167;BME280;2097;51.104;7.150;2023-02-28T07:34:07;100122.00;;;-1.99;83.32
4167;BME280;2097;51.104;7.150;2023-02-28T07:36:34;99744.94;;;-4.15;83.81
4167;BME280;2097;51.104;7.150;2023-02-28T07:39:01;99671.66;;;-4.59;83.48
4167;BME280;2097;51.104;7.150;2023-02-28T07:41:29;100117.13;;;-1.83;83.71
4167;BME280;2097;51.104;7.150;2023-02-28T07:43:59;100153.94;;;-1.55;83.53
4167;BME280;2097;51.104;7.150;2023-02-28T07:46:27;99932.81;;;-2.86;82.91
4167;BME280;2097;51.104;7.150;2023-02-28T07:49:00;100021.81;;;-2.13;83.28
4167;BME280;2097;51.104;7.150;2023-02-28T07:51:28;100157.59;;;-1.34;82.77
4167;BME280;2097;51.104;7.150;2023-02-28T07:53:55;100117.59;;;-1.44;82.69
4167;BME280;2097;51.104;7.150;2023-02-28T07:56:22;99997.34;;;-2.07;82.92
4167;BME280;2097;51.104;7.150;2023-02-28T07:58:49;100059.78;;;-1.55;82.61
4167;BME280;2097;51.104;7.150;2023-02-28T08:01:15;100149.47;;;-1.00;81.99
4167;BME280;2097;51.104;7.150;2023-02-28T08:03:44;99989.94;;;-1.87;81.83
4167;BME280;2097;51.104;7.150;2023-02-28T08:06:19;100150.47;;;-0.80;81.39
4167;BME280;2097;51.104;7.150;2023-02-28T08:08:46;100152.28;;;-0.69;81.68
4167;BME280;2097;51.104;7.150;2023-02-28T08:11:13;100220.28;;;-0.65;81.21
4167;BME280;2097;51.104;7.150;2023-02-28T08:13:40;100160.94;;;-0.52;80.59
4167;BME280;2097;51.104;7.150;2023-02-28T08:16:10;100151.63;;;-0.45;80.34
4167;BME280;2097;51.104;7.150;2023-02-28T08:18:37;99926.47;;;-1.74;79.48
4167;BME280;2097;51.104;7.150;2023-02-28T08:21:09;100152.56;;;-0.34;80.20
4167;BME280;2097;51.104;7.150;2023-02-28T08:23:36;100159.41;;;-0.26;79.58
4167;BME280;2097;51.104;7.150;2023-02-28T08:26:04;100156.06;;;-0.19;79.64
4167;BME280;2097;51.104;7.150;2023-02-28T08:28:32;100159.50;;;-0.12;79.14
4167;BME280;2097;51.104;7.150;2023-02-28T08:30:59;100162.94;;;-0.09;78.96
4167;BME280;2097;51.104;7.150;2023-02-28T08:33:27;100164.69;;;-0.02;79.33
4167;BME280;2097;51.104;7.150;2023-02-28T08:35:54;99866.22;;;-1.82;78.52
4167;BME280;2097;51.104;7.150;2023-02-28T08:38:23;100155.41;;;0.07;78.19
4167;BME280;2097;51.104;7.150;2023-02-28T08:40:56;100162.22;;;0.13;78.48
4167;BME280;2097;51.104;7.150;2023-02-28T08:43:23;100128.13;;;0.00;77.53
4167;BME280;2097;51.104;7.150;2023-02-28T08:45:51;100158.03;;;0.25;77.83
4167;BME280;2097;51.104;7.150;2023-02-28T08:48:18;100158.94;;;0.32;78.07
4167;BME280;2097;51.104;7.150;2023-02-28T08:50:54;100157.22;;;0.37;78.35
4167;BME280;2097;51.104;7.150;2023-02-28T08:53:22;100162.34;;;0.43;77.87
4167;BME280;2097;51.104;7.150;2023-02-28T08:55:56;100163.25;;;0.46;77.50
4167;BME280;2097;51.104;7.150;2023-02-28T08:58:22;100165.81;;;0.51;77.32
4167;BME280;2097;51.104;7.150;2023-02-28T09:00:50;100174.34;;;0.56;76.91
4167;BME280;2097;51.104;7.150;2023-02-28T09:03:17;100168.41;;;0.61;77.37
4167;BME280;2097;51.104;7.150;2023-02-28T09:05:51;100161.63;;;0.68;76.81
4167;BME280;2097;51.104;7.150;2023-02-28T09:08:18;100162.47;;;0.76;76.51
4167;BME280;2097;51.104;7.150;2023-02-28T09:10:47;100158.25;;;0.81;76.98
4167;BME280;2097;51.104;7.150;2023-02-28T09:13:14;100099.44;;;0.52;75.90
4167;BME280;2097;51.104;7.150;2023-02-28T09:15:41;100156.59;;;0.95;75.69
4167;BME280;2097;51.104;7.150;2023-02-28T09:18:07;100152.34;;;1.03;76.17
4167;BME280;2097;51.104;7.150;2023-02-28T09:20:37;100145.53;;;1.10;75.40
4167;BME280;2097;51.104;7.150;2023-02-28T09:23:04;100150.66;;;1.16;74.77
4167;BME280;2097;51.104;7.150;2023-02-28T09:25:31;100147.25;;;1.20;74.65
4167;BME280;2097;51.104;7.150;2023-02-28T09:28:00;100083.31;;;0.88;74.70
4167;BME280;2097;51.104;7.150;2023-02-28T09:30:26;100142.13;;;1.28;74.28
4167;BME280;2097;51.104;7.150;2023-02-28T09:32:54;100129.38;;;1.19;73.62
4167;BME280;2097;51.104;7.150;2023-02-28T09:35:21;100148.09;;;1.49;73.00
4167;BME280;2097;51.104;7.150;2023-02-28T09:37:49;100148.13;;;1.58;72.08
4167;BME280;2097;51.104;7.150;2023-02-28T09:40:17;100052.66;;;1.17;71.99
4167;BME280;2097;51.104;7.150;2023-02-28T09:42:46;100070.56;;;1.38;71.83
4167;BME280;2097;51.104;7.150;2023-02-28T09:45:22;100024.56;;;1.23;71.49
4167;BME280;2097;51.104;7.150;2023-02-28T09:47:52;100142.91;;;2.15;71.87
4167;BME280;2097;51.104;7.150;2023-02-28T09:50:29;100090.03;;;2.01;71.16
4167;BME280;2097;51.104;7.150;2023-02-28T09:52:59;100154.78;;;2.37;71.33
4167;BME280;2097;51.104;7.150;2023-02-28T09:55:29;100142.84;;;2.39;70.94
4167;BME280;2097;51.104;7.150;2023-02-28T09:57:57;100149.63;;;2.47;71.13
4167;BME280;2097;51.104;7.150;2023-02-28T10:00:32;100095.91;;;2.35;71.14
4167;BME280;2097;51.104;7.150;2023-02-28T10:03:23;100139.13;;;2.95;70.75
4167;BME280;2097;51.104;7.150;2023-02-28T10:05:56;100139.00;;;3.18;70.15
4167;BME280;2097;51.104;7.150;2023-02-28T10:08:29;100147.50;;;3.24;69.23
4167;BME280;2097;51.104;7.150;2023-02-28T10:11:01;100150.06;;;3.24;68.84
4167;BME280;2097;51.104;7.150;2023-02-28T10:13:33;100036.00;;;2.57;68.62
4167;BME280;2097;51.104;7.150;2023-02-28T10:16:06;100022.38;;;2.49;68.39
4167;BME280;2097;51.104;7.150;2023-02-28T10:18:40;100139.88;;;3.12;68.36
4167;BME280;2097;51.104;7.150;2023-02-28T10:21:17;100138.22;;;3.07;68.13
4167;BME280;2097;51.104;7.150;2023-02-28T10:23:45;100141.59;;;3.12;68.50
4167;BME280;2097;51.104;7.150;2023-02-28T10:26:16;100151.78;;;3.22;67.82
4167;BME280;2097;51.104;7.150;2023-02-28T10:28:44;100132.03;;;3.32;68.03
4167;BME280;2097;51.104;7.150;2023-02-28T10:31:15;100016.28;;;2.70;67.11
4167;BME280;2097;51.104;7.150;2023-02-28T10:33:44;100144.69;;;3.54;67.28
4167;BME280;2097;51.104;7.150;2023-02-28T10:36:14;100135.28;;;3.54;66.86
4167;BME280;2097;51.104;7.150;2023-02-28T10:38:42;100143.91;;;3.44;66.68
4167;BME280;2097;51.104;7.150;2023-02-28T10:41:11;100131.16;;;3.37;66.43
4167;BME280;2097;51.104;7.150;2023-02-28T10:43:40;100106.47;;;3.26;66.86
4167;BME280;2097;51.104;7.150;2023-02-28T10:46:15;100135.34;;;3.48;65.89
4167;BME280;2097;51.104;7.150;2023-02-28T10:49:01;100140.50;;;3.45;65.59
4167;BME280;2097;51.104;7.150;2023-02-28T10:51:35;100135.31;;;3.51;65.33
4167;BME280;2097;51.104;7.150;2023-02-28T10:54:03;99837.72;;;1.68;65.73
4167;BME280;2097;51.104;7.150;2023-02-28T10:56:30;100124.41;;;3.26;65.15
4167;BME280;2097;51.104;7.150;2023-02-28T10:58:59;100121.78;;;3.32;65.86
4167;BME280;2097;51.104;7.150;2023-02-28T11:01:37;100122.50;;;3.47;65.72
4167;BME280;2097;51.104;7.150;2023-02-28T11:04:17;99997.34;;;2.89;65.29
4167;BME280;2097;51.104;7.150;2023-02-28T11:06:47;100008.31;;;3.06;65.46
4167;BME280;2097;51.104;7.150;2023-02-28T11:09:19;100110.41;;;3.61;65.50
4167;BME280;2097;51.104;7.150;2023-02-28T11:11:49;99801.81;;;1.85;65.41
4167;BME280;2097;51.104;7.150;2023-02-28T11:14:20;100115.41;;;3.76;64.71
4167;BME280;2097;51.104;7.150;2023-02-28T11:16:50;100111.03;;;3.85;64.76
4167;BME280;2097;51.104;7.150;2023-02-28T11:19:20;100110.19;;;3.86;64.34
4167;BME280;2097;51.104;7.150;2023-02-28T11:21:55;100106.72;;;3.90;64.09
4167;BME280;2097;51.104;7.150;2023-02-28T11:24:25;100008.81;;;3.43;64.15
4167;BME280;2097;51.104;7.150;2023-02-28T11:26:53;100108.25;;;4.06;64.51
4167;BME280;2097;51.104;7.150;2023-02-28T11:29:23;100105.66;;;4.06;64.40
4167;BME280;2097;51.104;7.150;2023-02-28T11:32:13;100102.22;;;4.12;63.85
4167;BME280;2097;51.104;7.150;2023-02-28T11:34:41;100057.00;;;3.96;64.36
4167;BME280;2097;51.104;7.150;2023-02-28T11:37:12;100040.59;;;4.07;63.61
4167;BME280;2097;51.104;7.150;2023-02-28T11:39:39;100107.56;;;4.61;63.27
4167;BME280;2097;51.104;7.150;2023-02-28T11:42:23;100094.41;;;4.84;62.58
4167;BME280;2097;51.104;7.150;2023-02-28T11:45:07;100065.56;;;4.62;63.05
4167;BME280;2097;51.104;7.150;2023-02-28T11:47:47;100098.84;;;4.74;62.70
4167;BME280;2097;51.104;7.150;2023-02-28T11:50:32;100103.44;;;4.50;63.00
4167;BME280;2097;51.104;7.150;2023-02-28T11:53:13;100103.81;;;4.20;63.11
4167;BME280;2097;51.104;7.150;2023-02-28T11:55:45;100036.81;;;3.64;63.57
4167;BME280;2097;51.104;7.150;2023-02-28T11:58:29;100083.84;;;3.68;63.24
4167;BME280;2097;51.104;7.150;2023-02-28T12:01:18;100112.16;;;3.57;63.93
4167;BME280;2097;51.104;7.150;2023-02-28T12:03:58;99887.81;;;2.08;64.59
4167;BME280;2097;51.104;7.150;2023-02-28T12:06:33;100098.75;;;3.26;64.23
4167;BME280;2097;51.104;7.150;2023-02-28T12:09:18;99958.44;;;2.36;64.65
4167;BME280;2097;51.104;7.150;2023-02-28T12:11:51;100074.81;;;3.27;64.30
4167;BME280;2097;51.104;7.150;2023-02-28T12:14:49;100101.03;;;3.58;63.20
4167;BME280;2097;51.104;7.150;2023-02-28T12:17:29;99953.81;;;2.81;63.01
4167;BME280;2097;51.104;7.150;2023-02-28T12:20:06;100094.88;;;3.76;63.06
4167;BME280;2097;51.104;7.150;2023-02-28T12:22:42;100085.25;;;3.97;62.31
4167;BME280;2097;51.104;7.150;2023-02-28T12:25:37;100034.91;;;3.81;62.09
4167;BME280;2097;51.104;7.150;2023-02-28T12:28:10;100042.38;;;4.02;61.40
4167;BME280;2097;51.104;7.150;2023-02-28T12:30:41;100074.56;;;4.33;60.88
4167;BME280;2097;51.104;7.150;2023-02-28T12:33:14;100062.56;;;4.32;60.83
4167;BME280;2097;51.104;7.150;2023-02-28T12:35:49;99820.53;;;2.86;60.58
4167;BME280;2097;51.104;7.150;2023-02-28T12:38:19;100062.56;;;4.32;61.00
4167;BME280;2097;51.104;7.150;2023-02-28T12:40:51;99955.41;;;3.75;60.32
4167;BME280;2097;51.104;7.150;2023-02-28T12:43:20;100055.72;;;4.31;60.74
4167;BME280;2097;51.104;7.150;2023-02-28T12:45:50;100051.47;;;4.29;60.83
4167;BME280;2097;51.104;7.150;2023-02-28T12:48:24;100047.16;;;4.32;60.27
4167;BME280;2097;51.104;7.150;2023-02-28T12:50:53;100045.31;;;4.40;60.00
4167;BME280;2097;51.104;7.150;2023-02-28T12:53:25;100047.84;;;4.45;60.25
4167;BME280;2097;51.104;7.150;2023-02-28T12:56:04;100040.06;;;4.49;59.74
4167;BME280;2097;51.104;7.150;2023-02-28T12:58:38;99959.44;;;3.96;58.95
4167;BME280;2097;51.104;7.150;2023-02-28T13:01:33;100026.31;;;4.53;59.34
4167;BME280;2097;51.104;7.150;2023-02-28T13:04:52;100032.22;;;4.58;59.17
4167;BME280;2097;51.104;7.150;2023-02-28T13:07:52;100024.47;;;4.61;59.44
4167;BME280;2097;51.104;7.150;2023-02-28T13:10:20;100022.59;;;4.72;59.67
4167;BME280;2097;51.104;7.150;2023-02-28T13:12:49;100024.31;;;4.73;59.14
4167;BME280;2097;51.104;7.150;2023-02-28T13:15:22;99917.31;;;4.07;58.71
4167;BME280;2097;51.104;7.150;2023-02-28T13:17:51;100022.66;;;4.67;59.22
4167;BME280;2097;51.104;7.150;2023-02-28T13:20:20;100020.94;;;4.68;59.33
4167;BME280;2097;51.104;7.150;2023-02-28T13:22:49;100019.16;;;4.73;59.52
4167;BME280;2097;51.104;7.150;2023-02-28T13:31:31;100022.91;;;5.05;58.48
4167;BME280;2097;51.104;7.150;2023-02-28T13:34:13;100021.31;;;5.00;59.01
4167;BME280;2097;51.104;7.150;2023-02-28T13:36:40;100007.59;;;4.99;59.29
4167;BME280;2097;51.104;7.150;2023-02-28T13:42:23;100007.47;;;5.05;58.75
4167;BME280;2097;51.104;7.150;2023-02-28T13:48:16;100003.25;;;5.03;57.59
4167;BME280;2097;51.104;7.150;2023-02-28T13:50:44;99970.19;;;4.80;58.31
4167;BME280;2097;51.104;7.150;2023-02-28T13:53:47;100004.84;;;5.10;58.04
4167;BME280;2097;51.104;7.150;2023-02-28T13:56:33;99999.56;;;5.17;57.86
4167;BME280;2097;51.104;7.150;2023-02-28T13:59:06;99996.03;;;5.23;58.15
4167;BME280;2097;51.104;7.150;2023-02-28T14:01:50;99864.41;;;4.51;57.89
4167;BME280;2097;51.104;7.150;2023-02-28T14:04:48;99991.38;;;5.44;58.30
4167;BME280;2097;51.104;7.150;2023-02-28T14:07:19;99991.28;;;5.49;58.04